Terminal Aerodrome Forecast
Issued by NWS

Home | Current Version | Previous Version | Text Only | Print | Product List | Glossary On
Versions: 1 2 3 4 5 6 7 8 9 10 11 12 13 14 15 16 17 18 19
085
FTUS46 KLOX 102207 CCA
TAFVNY
TAF COR
KVNY 102207Z 1022/1118 16006KT 5SM HZ BKN025
     FM110300 VRB03KT 4SM BR OVC015
     FM110500 VRB03KT 3SM BR OVC008
     FM110900 VRB03KT 2SM BR VCSH OVC006=

USA.gov is the U.S. government's official web portal to all federal, state and local government web resources and services.